createdAt,value
2022-09-04T00:02:21.952Z,19.00
2022-09-04T00:05:20.108Z,19.00
2022-09-04T00:08:25.363Z,19.10
2022-09-04T00:11:22.007Z,19.10
2022-09-04T00:14:16.546Z,19.10
2022-09-04T00:17:11.769Z,19.10
2022-09-04T00:20:06.057Z,19.10
2022-09-04T00:23:00.636Z,19.10
2022-09-04T00:25:57.507Z,19.10
2022-09-04T00:28:51.780Z,19.10
2022-09-04T00:31:47.365Z,19.10
2022-09-04T00:35:05.135Z,19.00
2022-09-04T00:38:00.090Z,18.90
2022-09-04T00:40:54.137Z,18.90
2022-09-04T00:44:11.511Z,18.90
2022-09-04T00:47:40.160Z,18.90
2022-09-04T00:50:48.180Z,18.90
2022-09-04T00:53:48.581Z,18.80
2022-09-04T01:00:14.379Z,18.90
2022-09-04T01:03:27.577Z,18.90
2022-09-04T01:06:29.699Z,18.90
2022-09-04T01:12:41.889Z,18.80
2022-09-04T01:15:38.074Z,18.80
2022-09-04T01:18:33.178Z,18.90
2022-09-04T01:21:35.697Z,18.90
2022-09-04T01:24:59.807Z,18.90
2022-09-04T01:27:55.528Z,18.90
2022-09-04T01:30:49.731Z,18.90
2022-09-04T01:33:44.474Z,18.80
2022-09-04T01:36:39.585Z,18.80
2022-09-04T01:39:33.233Z,18.80
2022-09-04T01:42:34.722Z,18.80
2022-09-04T01:45:32.718Z,18.80
2022-09-04T01:48:27.609Z,18.80
2022-09-04T01:51:24.950Z,18.80
2022-09-04T01:54:22.849Z,18.80
2022-09-04T01:57:19.511Z,18.80
2022-09-04T02:00:13.380Z,18.70
2022-09-04T02:03:08.271Z,18.70
2022-09-04T02:06:04.749Z,18.80
2022-09-04T02:09:10.321Z,18.80
2022-09-04T02:12:07.192Z,18.90
2022-09-04T02:15:03.757Z,18.80
2022-09-04T02:17:58.136Z,18.90
2022-09-04T02:20:54.442Z,18.90
2022-09-04T02:23:49.923Z,18.90
2022-09-04T02:26:43.935Z,18.90
2022-09-04T02:29:40.191Z,18.80
2022-09-04T02:32:38.023Z,18.80
2022-09-04T02:35:33.380Z,18.70
2022-09-04T02:38:29.548Z,18.70
2022-09-04T02:41:24.180Z,18.70
2022-09-04T02:44:25.524Z,18.70
2022-09-04T02:47:21.958Z,18.70
2022-09-04T02:50:20.445Z,18.60
2022-09-04T02:53:20.287Z,18.60
2022-09-04T02:56:22.727Z,18.60
2022-09-04T02:59:27.889Z,18.60
2022-09-04T03:02:26.150Z,18.60
2022-09-04T03:05:21.187Z,18.60
2022-09-04T03:08:16.062Z,18.60
2022-09-04T03:11:11.936Z,18.60
2022-09-04T03:14:06.281Z,18.60
2022-09-04T03:17:01.813Z,18.50
2022-09-04T03:19:55.939Z,18.50
2022-09-04T03:22:51.408Z,18.50
2022-09-04T03:26:11.748Z,18.50
2022-09-04T03:29:09.189Z,18.60
2022-09-04T03:32:16.093Z,18.60
2022-09-04T03:38:00.257Z,18.50
2022-09-04T03:40:56.261Z,18.40
2022-09-04T03:43:59.308Z,18.40
2022-09-04T03:46:57.131Z,18.40
2022-09-04T03:49:50.355Z,18.30
2022-09-04T03:52:47.070Z,18.40
2022-09-04T03:55:53.537Z,18.30
2022-09-04T03:58:47.475Z,18.30
2022-09-04T04:01:54.529Z,18.30
2022-09-04T04:05:00.438Z,18.30
2022-09-04T04:07:58.774Z,18.20
2022-09-04T04:10:55.415Z,18.30
2022-09-04T04:14:11.196Z,18.30
2022-09-04T04:17:12.718Z,18.40
2022-09-04T04:20:14.641Z,18.40
2022-09-04T04:23:22.547Z,18.30
2022-09-04T04:26:20.700Z,18.20
2022-09-04T04:29:43.766Z,18.20
2022-09-04T04:32:59.289Z,18.10
2022-09-04T04:35:55.702Z,18.20
2022-09-04T04:38:56.327Z,18.20
2022-09-04T04:42:08.665Z,18.20
2022-09-04T04:45:31.019Z,18.20
2022-09-04T04:49:05.870Z,18.20
2022-09-04T04:52:11.901Z,18.20
2022-09-04T04:55:22.325Z,18.20
2022-09-04T04:58:24.530Z,18.20
2022-09-04T05:01:21.463Z,18.10
2022-09-04T05:04:17.530Z,18.20
2022-09-04T05:07:14.322Z,18.20
2022-09-04T05:10:13.572Z,18.30
2022-09-04T05:13:11.621Z,18.30
2022-09-04T05:16:09.807Z,18.30
2022-09-04T05:19:03.481Z,18.30
2022-09-04T05:21:59.391Z,18.40
2022-09-04T05:24:57.730Z,18.40
2022-09-04T05:27:56.120Z,18.40
2022-09-04T05:30:50.543Z,18.50
2022-09-04T05:33:45.943Z,18.60
2022-09-04T05:36:43.953Z,18.50
2022-09-04T05:39:35.304Z,18.60
2022-09-04T05:42:45.593Z,18.50
2022-09-04T05:45:44.459Z,18.40
2022-09-04T05:48:40.687Z,18.50
2022-09-04T05:51:48.456Z,18.40
2022-09-04T05:55:13.242Z,18.40
2022-09-04T06:00:49.779Z,18.30
2022-09-04T06:04:10.940Z,18.30
2022-09-04T06:07:08.479Z,18.40
2022-09-04T06:10:04.590Z,18.40
2022-09-04T06:13:51.430Z,18.40
2022-09-04T06:16:50.182Z,18.40
2022-09-04T06:19:49.574Z,18.40
2022-09-04T06:23:04.875Z,18.40
2022-09-04T06:26:11.358Z,18.50
2022-09-04T06:29:12.308Z,18.50
2022-09-04T06:32:44.517Z,18.60
2022-09-04T06:35:58.661Z,18.60
2022-09-04T06:38:57.781Z,18.70
2022-09-04T06:42:01.325Z,18.80
2022-09-04T06:44:59.936Z,18.90
2022-09-04T06:48:04.757Z,18.90
2022-09-04T06:53:47.181Z,18.80
2022-09-04T06:56:50.688Z,18.90
2022-09-04T06:59:55.963Z,19.00
2022-09-04T07:06:12.858Z,19.10
2022-09-04T07:09:08.981Z,19.20
2022-09-04T07:12:28.165Z,19.30
2022-09-04T07:16:09.628Z,19.30
2022-09-04T07:19:14.608Z,19.40
2022-09-04T07:22:22.822Z,19.40
2022-09-04T07:25:18.532Z,19.40
2022-09-04T07:28:15.540Z,19.50
2022-09-04T07:31:10.573Z,19.60
2022-09-04T07:34:06.359Z,19.60
2022-09-04T07:37:02.688Z,19.70
2022-09-04T07:39:58.476Z,19.80
2022-09-04T07:42:53.762Z,19.80
2022-09-04T07:45:49.814Z,19.80
2022-09-04T07:48:44.807Z,19.90
2022-09-04T07:51:38.840Z,19.90
2022-09-04T07:54:44.338Z,19.90
2022-09-04T07:57:46.666Z,20.00
2022-09-04T08:00:43.475Z,20.00
2022-09-04T08:03:53.902Z,20.10
2022-09-04T08:06:42.065Z,20.20
2022-09-04T08:09:41.959Z,20.30
2022-09-04T08:12:50.863Z,20.30
2022-09-04T08:15:46.499Z,20.30
2022-09-04T08:21:48.029Z,20.40
2022-09-04T08:24:54.085Z,20.50
2022-09-04T08:28:09.368Z,20.60
2022-09-04T08:31:07.884Z,20.70
2022-09-04T08:34:23.611Z,20.80
2022-09-04T08:37:20.898Z,21.00
2022-09-04T08:41:06.331Z,21.00
2022-09-04T08:47:44.876Z,21.20
2022-09-04T08:51:08.366Z,21.30
2022-09-04T08:54:13.729Z,21.40
2022-09-04T08:57:18.529Z,21.50
2022-09-04T09:00:12.785Z,21.50
2022-09-04T09:03:28.102Z,21.60
2022-09-04T09:06:45.274Z,21.70
2022-09-04T09:10:08.593Z,21.80
2022-09-04T09:13:30.493Z,21.90
2022-09-04T09:16:27.998Z,22.00
2022-09-04T09:19:39.871Z,21.90
2022-09-04T09:22:49.595Z,21.90
2022-09-04T09:25:44.295Z,22.00
2022-09-04T09:29:01.389Z,22.10
2022-09-04T09:32:28.998Z,22.20
2022-09-04T09:36:02.869Z,22.30
2022-09-04T09:39:14.596Z,22.40
2022-09-04T09:46:09.299Z,22.50
2022-09-04T09:52:04.658Z,22.60
2022-09-04T09:58:32.457Z,22.70
2022-09-04T10:01:57.129Z,22.90
2022-09-04T10:05:31.379Z,23.00
2022-09-04T10:08:35.972Z,23.10
2022-09-04T10:15:45.695Z,23.40
2022-09-04T10:22:12.521Z,23.60
2022-09-04T10:25:43.901Z,23.60
2022-09-04T10:29:20.318Z,23.70
2022-09-04T10:32:31.944Z,23.90
2022-09-04T10:35:29.408Z,23.90
2022-09-04T10:38:43.722Z,23.90
2022-09-04T10:41:46.237Z,24.00
2022-09-04T10:45:02.843Z,24.10
2022-09-04T10:48:49.797Z,24.20
2022-09-04T10:52:07.396Z,24.40
2022-09-04T10:55:31.592Z,24.50
2022-09-04T10:58:30.037Z,24.40
2022-09-04T11:01:45.318Z,24.50
2022-09-04T11:05:07.334Z,24.50
2022-09-04T11:08:24.468Z,24.70
2022-09-04T11:11:26.041Z,24.90
2022-09-04T11:14:49.906Z,24.90
2022-09-04T11:18:23.319Z,25.00
2022-09-04T11:21:48.134Z,25.10
2022-09-04T11:25:14.691Z,25.10
2022-09-04T11:28:36.324Z,25.10
2022-09-04T11:31:35.319Z,25.10
2022-09-04T11:35:07.616Z,25.30
2022-09-04T11:38:12.145Z,25.30
2022-09-04T11:41:47.600Z,25.40
2022-09-04T11:45:22.769Z,25.40
2022-09-04T11:48:45.015Z,25.40
2022-09-04T11:52:17.781Z,25.50
2022-09-04T11:55:39.191Z,25.60
2022-09-04T11:58:54.780Z,25.70
2022-09-04T12:02:29.174Z,25.90
2022-09-04T12:08:07.807Z,26.00
2022-09-04T12:11:13.766Z,26.10
2022-09-04T12:14:19.833Z,26.20
2022-09-04T12:17:47.673Z,26.30
2022-09-04T12:21:01.844Z,26.30
2022-09-04T12:24:18.580Z,26.40
2022-09-04T12:30:29.750Z,26.60
2022-09-04T12:33:40.153Z,26.50
2022-09-04T12:37:00.578Z,26.60
2022-09-04T12:40:10.222Z,26.60
2022-09-04T12:43:16.148Z,26.80
2022-09-04T12:46:14.614Z,26.90
2022-09-04T12:49:16.073Z,27.10
2022-09-04T12:52:11.518Z,26.90
2022-09-04T12:55:09.710Z,26.90
2022-09-04T12:58:11.760Z,26.90
2022-09-04T13:01:10.349Z,26.90
2022-09-04T13:04:08.325Z,27.00
2022-09-04T13:07:16.061Z,27.20
2022-09-04T13:10:07.182Z,27.40
2022-09-04T13:13:05.277Z,27.40
2022-09-04T13:16:01.713Z,27.60
2022-09-04T13:19:01.055Z,27.70
2022-09-04T13:22:10.061Z,27.90
2022-09-04T13:25:07.104Z,28.10
2022-09-04T13:28:05.024Z,28.20
2022-09-04T13:31:00.258Z,28.30
2022-09-04T13:33:57.145Z,28.40
2022-09-04T13:36:57.405Z,28.70
2022-09-04T13:40:01.271Z,28.70
2022-09-04T13:43:18.167Z,28.60
2022-09-04T13:46:13.196Z,28.70
2022-09-04T13:49:07.841Z,28.70
2022-09-04T13:52:03.341Z,29.00
2022-09-04T13:54:58.692Z,29.20
2022-09-04T13:57:56.058Z,29.40
2022-09-04T14:00:50.059Z,29.50
2022-09-04T14:03:44.992Z,29.60
2022-09-04T14:06:38.430Z,29.50
2022-09-04T14:09:31.452Z,30.00
2022-09-04T14:12:53.975Z,30.80
2022-09-04T14:15:52.298Z,32.10
2022-09-04T14:19:15.390Z,32.40
2022-09-04T14:22:10.448Z,32.90
2022-09-04T14:25:11.729Z,33.00
2022-09-04T14:28:06.818Z,33.00
2022-09-04T14:31:06.392Z,33.60
2022-09-04T14:34:05.516Z,33.10
2022-09-04T14:37:00.736Z,32.40
2022-09-04T14:39:55.837Z,32.40
2022-09-04T14:42:51.153Z,33.60
2022-09-04T14:46:07.011Z,33.90
2022-09-04T14:49:06.314Z,33.80
2022-09-04T14:51:59.280Z,34.30
2022-09-04T14:54:58.064Z,35.00
2022-09-04T14:57:55.341Z,34.20
2022-09-04T15:01:01.634Z,34.80
2022-09-04T15:03:56.313Z,35.50
2022-09-04T15:07:10.828Z,35.80
2022-09-04T15:09:48.247Z,35.90
2022-09-04T15:12:42.936Z,36.30
2022-09-04T15:15:37.167Z,36.00
2022-09-04T15:21:21.382Z,34.70
2022-09-04T15:24:17.590Z,35.10
2022-09-04T15:27:16.655Z,36.00
2022-09-04T15:30:14.832Z,36.70
2022-09-04T15:33:08.570Z,37.20
2022-09-04T15:36:07.868Z,36.90
2022-09-04T15:39:02.320Z,37.00
2022-09-04T15:41:53.607Z,37.30
2022-09-04T15:44:48.486Z,37.00
2022-09-04T15:48:11.315Z,37.70
2022-09-04T15:51:19.774Z,37.50
2022-09-04T15:54:35.400Z,37.70
2022-09-04T15:57:33.183Z,38.90
2022-09-04T16:00:27.390Z,38.60
2022-09-04T16:03:22.094Z,39.50
2022-09-04T16:06:19.957Z,39.90
2022-09-04T16:09:14.012Z,40.20
2022-09-04T16:12:10.553Z,39.10
2022-09-04T16:15:05.530Z,38.30
2022-09-04T16:17:57.835Z,37.70
2022-09-04T16:20:52.148Z,37.40
2022-09-04T16:23:44.159Z,37.20
2022-09-04T16:26:36.548Z,36.70
2022-09-04T16:29:36.984Z,37.00
2022-09-04T16:32:32.036Z,38.60
2022-09-04T16:35:24.736Z,39.60
2022-09-04T16:38:23.442Z,38.60
2022-09-04T16:41:14.974Z,39.30
2022-09-04T16:44:13.952Z,39.20
2022-09-04T16:47:10.670Z,38.90
2022-09-04T16:50:06.452Z,37.60
2022-09-04T16:53:17.326Z,36.50
2022-09-04T16:56:14.749Z,35.50
2022-09-04T16:59:19.236Z,34.90
2022-09-04T17:02:17.122Z,34.10
2022-09-04T17:05:18.601Z,33.60
2022-09-04T17:08:15.848Z,32.80
2022-09-04T17:11:13.941Z,31.70
2022-09-04T17:14:09.435Z,31.20
2022-09-04T17:17:08.943Z,30.90
2022-09-04T17:20:08.656Z,30.50
2022-09-04T17:28:59.461Z,30.20
2022-09-04T17:29:14.610Z,29.90
2022-09-04T17:32:35.455Z,29.40
2022-09-04T17:40:35.865Z,29.10
2022-09-04T17:40:53.764Z,29.30
2022-09-04T17:41:39.905Z,28.90
2022-09-04T17:44:36.078Z,28.60
2022-09-04T17:47:33.021Z,28.30
2022-09-04T17:50:24.876Z,28.10
2022-09-04T17:53:33.639Z,27.90
2022-09-04T17:56:29.648Z,27.80
2022-09-04T17:59:25.937Z,27.60
2022-09-04T18:02:21.153Z,27.40
2022-09-04T18:05:17.666Z,27.30
2022-09-04T18:08:12.693Z,27.20
2022-09-04T18:11:07.324Z,27.00
2022-09-04T18:14:02.532Z,26.90
2022-09-04T18:17:11.705Z,26.80
2022-09-04T18:19:59.411Z,26.60
2022-09-04T18:23:03.151Z,26.50
2022-09-04T18:25:57.880Z,26.50
2022-09-04T18:37:12.183Z,26.30
2022-09-04T18:37:23.202Z,26.20
2022-09-04T18:37:44.140Z,26.10
2022-09-04T18:41:54.817Z,26.10
2022-09-04T18:50:24.352Z,26.00
2022-09-04T18:50:29.201Z,25.90
2022-09-04T18:50:49.244Z,25.70
2022-09-04T18:52:19.598Z,25.60
2022-09-04T18:55:15.282Z,25.50
2022-09-04T18:58:50.683Z,25.40
2022-09-04T19:01:48.164Z,25.50
2022-09-04T19:04:47.959Z,25.50
2022-09-04T19:07:44.595Z,25.40
2022-09-04T19:13:20.263Z,25.40
2022-09-04T19:16:12.895Z,25.40
2022-09-04T19:19:09.753Z,25.30
2022-09-04T19:22:09.652Z,25.20
2022-09-04T19:25:05.817Z,25.20
2022-09-04T19:28:00.287Z,25.20
2022-09-04T19:30:55.557Z,25.20
2022-09-04T19:33:50.290Z,25.10
2022-09-04T19:36:45.809Z,25.00
2022-09-04T19:46:03.889Z,24.90
2022-09-04T19:46:15.504Z,24.90
2022-09-04T19:46:17.426Z,24.90
2022-09-04T19:48:34.283Z,24.80
2022-09-04T19:53:36.106Z,24.60
2022-09-04T19:54:34.684Z,24.50
2022-09-04T19:57:32.538Z,24.50
2022-09-04T20:00:43.190Z,24.40
2022-09-04T20:03:29.687Z,24.40
2022-09-04T20:06:23.209Z,24.50
2022-09-04T20:09:18.338Z,24.50
2022-09-04T20:12:18.226Z,24.50
2022-09-04T20:15:14.093Z,24.50
2022-09-04T20:18:11.877Z,24.50
2022-09-04T20:21:07.896Z,24.50
2022-09-04T20:24:04.621Z,24.40
2022-09-04T20:27:01.582Z,24.30
2022-09-04T20:29:56.178Z,24.30
2022-09-04T20:32:51.277Z,24.30
2022-09-04T20:35:46.318Z,24.30
2022-09-04T20:38:41.683Z,24.30
2022-09-04T20:41:37.401Z,24.20
2022-09-04T20:44:31.941Z,24.10
2022-09-04T20:52:54.576Z,24.10
2022-09-04T20:52:55.063Z,24.10
2022-09-04T20:53:28.347Z,24.10
2022-09-04T20:56:29.530Z,24.10
2022-09-04T21:03:06.759Z,24.10
2022-09-04T21:03:23.991Z,24.10
2022-09-04T21:06:06.752Z,24.10
2022-09-04T21:08:57.187Z,24.10
2022-09-04T21:14:45.862Z,24.20
2022-09-04T21:18:07.469Z,24.20
2022-09-04T21:21:31.217Z,24.10
2022-09-04T21:24:49.600Z,24.10
2022-09-04T21:28:01.067Z,24.00
2022-09-04T21:31:01.190Z,23.90
2022-09-04T21:33:59.289Z,23.90
2022-09-04T21:36:53.138Z,23.90
2022-09-04T21:40:51.268Z,23.80
2022-09-04T21:44:19.267Z,23.80
2022-09-04T21:50:53.051Z,23.80
2022-09-04T21:54:37.866Z,23.80
2022-09-04T22:02:26.235Z,23.80
2022-09-04T22:02:38.658Z,23.80
2022-09-04T22:04:13.290Z,23.80
2022-09-04T22:08:20.452Z,23.70
2022-09-04T22:13:29.611Z,23.70
2022-09-04T22:13:42.100Z,23.60
2022-09-04T22:16:29.186Z,23.60
2022-09-04T22:19:40.861Z,23.60
2022-09-04T22:23:20.300Z,23.50
2022-09-04T22:26:29.395Z,23.40
2022-09-04T22:29:44.160Z,23.30
2022-09-04T22:33:06.857Z,23.30
2022-09-04T22:36:39.057Z,23.10
2022-09-04T22:39:46.796Z,22.90
2022-09-04T22:42:52.461Z,22.90
2022-09-04T22:46:09.427Z,22.80
2022-09-04T22:49:28.279Z,22.70
2022-09-04T22:52:31.762Z,22.60
2022-09-04T23:01:49.222Z,22.60
2022-09-04T23:04:53.436Z,22.60
2022-09-04T23:13:49.257Z,22.60
2022-09-04T23:13:49.526Z,22.60
2022-09-04T23:14:22.418Z,22.50
2022-09-04T23:17:27.048Z,22.50
2022-09-04T23:26:19.747Z,22.40
2022-09-04T23:26:43.053Z,22.40
2022-09-04T23:27:07.401Z,22.30
2022-09-04T23:30:14.546Z,22.30
2022-09-04T23:33:39.998Z,22.20
2022-09-04T23:37:00.090Z,22.20
2022-09-04T23:40:32.193Z,22.10
2022-09-04T23:44:13.199Z,22.00
2022-09-04T23:47:47.108Z,22.00
2022-09-04T23:50:14.772Z,22.00
2022-09-04T23:53:12.912Z,22.00
2022-09-04T23:56:15.025Z,22.00
2022-09-04T23:59:36.594Z,22.10
